Time;durP1;ratioP1;P1;durP2;ratioP2;P2;SDS_P1;SDS_P2;PMS_P1;PMS_P2;Temp;Humidity;BMP_temperature;BMP_pressure;BME280_temperature;BME280_humidity;BME280_pressure;Samples;Min_cycle;Max_cycle;Signal;HPM_P1;HPM_P2
2022/09/01 00:00:48;;;;;;;6.83;6.30;;;16.80;99.90;;;;;;5094619;28;20621;-69
2022/09/01 00:03:23;;;;;;;8.10;6.40;;;16.80;99.90;;;;;;5077818;28;20596;-69
2022/09/01 00:05:53;;;;;;;7.10;6.50;;;16.70;99.90;;;;;;5094690;28;20672;-69
2022/09/01 00:08:21;;;;;;;7.87;7.17;;;16.70;99.90;;;;;;5095328;28;21092;-70
2022/09/01 00:10:48;;;;;;;6.70;6.10;;;16.70;99.90;;;;;;5094557;28;20621;-70
2022/09/01 00:13:14;;;;;;;7.03;6.50;;;16.70;99.90;;;;;;5095321;28;20578;-69
2022/09/01 00:15:42;;;;;;;7.27;6.20;;;16.70;99.90;;;;;;5095012;28;20562;-69
2022/09/01 00:18:08;;;;;;;9.70;6.63;;;16.60;99.90;;;;;;5094373;28;20617;-69
2022/09/01 00:20:35;;;;;;;6.57;5.97;;;16.60;99.90;;;;;;5094779;28;20917;-69
2022/09/01 00:23:01;;;;;;;6.33;5.83;;;16.60;99.90;;;;;;5077035;28;20980;-69
2022/09/01 00:25:28;;;;;;;7.40;6.70;;;16.60;99.90;;;;;;5094911;28;20625;-69
2022/09/01 00:27:59;;;;;;;6.70;6.20;;;16.50;99.90;;;;;;5094179;28;21024;-69
2022/09/01 00:30:26;;;;;;;6.63;6.13;;;16.50;99.90;;;;;;5094543;28;20613;-69
2022/09/01 00:32:52;;;;;;;7.27;5.90;;;16.50;99.90;;;;;;5094595;28;21009;-69
2022/09/01 00:35:19;;;;;;;6.60;6.10;;;16.50;99.90;;;;;;5095132;28;20609;-69
2022/09/01 00:37:46;;;;;;;7.03;6.43;;;16.40;99.90;;;;;;5094847;28;20963;-69
2022/09/01 00:40:15;;;;;;;6.83;6.23;;;16.40;99.90;;;;;;5094789;28;20593;-69
2022/09/01 00:42:43;;;;;;;7.37;6.70;;;16.40;99.90;;;;;;5094099;28;20604;-69
2022/09/01 00:45:10;;;;;;;7.30;6.30;;;16.40;99.90;;;;;;5094627;28;20585;-69
2022/09/01 00:47:37;;;;;;;6.70;6.20;;;16.40;99.90;;;;;;5094241;28;20641;-69
2022/09/01 00:50:05;;;;;;;8.90;6.50;;;16.40;99.90;;;;;;5094556;28;20565;-69
2022/09/01 00:52:36;;;;;;;7.00;6.40;;;16.40;99.90;;;;;;5094521;28;20581;-69
2022/09/01 00:55:10;;;;;;;6.47;5.87;;;16.30;99.90;;;;;;5093881;28;20981;-69
2022/09/01 00:57:37;;;;;;;6.93;6.33;;;16.30;99.90;;;;;;5094661;28;20581;-69
2022/09/01 01:00:10;;;;;;;6.80;6.00;;;16.30;99.90;;;;;;5094660;28;20617;-69
2022/09/01 01:02:40;;;;;;;7.50;6.80;;;16.30;99.90;;;;;;5093571;28;20639;-69
2022/09/01 01:05:07;;;;;;;7.27;6.50;;;16.30;99.90;;;;;;5094254;28;20569;-69
2022/09/01 01:07:37;;;;;;;7.03;6.43;;;16.30;99.90;;;;;;5094129;28;21181;-69
2022/09/01 01:10:06;;;;;;;6.73;6.17;;;16.20;99.90;;;;;;5094289;28;20573;-69
2022/09/01 01:12:39;;;;;;;6.33;5.73;;;16.20;99.90;;;;;;5075766;28;20973;-69
2022/09/01 01:15:07;;;;;;;7.00;6.30;;;16.10;99.90;;;;;;5075897;28;20596;-70
2022/09/01 01:17:34;;;;;;;6.67;6.17;;;16.10;99.90;;;;;;5094238;28;20660;-69
2022/09/01 01:23:20;;;;;;;6.97;6.40;;;16.10;99.90;;;;;;5093591;28;20585;-69
2022/09/01 01:25:54;;;;;;;6.87;6.37;;;16.10;99.90;;;;;;5093473;28;21027;-69
2022/09/01 01:28:29;;;;;;;6.47;5.90;;;16.10;99.90;;;;;;5093716;28;20610;-69
2022/09/01 01:31:04;;;;;;;7.10;6.40;;;16.10;99.90;;;;;;5093535;28;20686;-69
2022/09/01 01:33:40;;;;;;;6.50;6.00;;;16.10;99.90;;;;;;5093244;28;20678;-69
2022/09/01 01:36:15;;;;;;;8.33;7.10;;;16.10;99.90;;;;;;5075535;28;21016;-69
2022/09/01 01:38:47;;;;;;;7.37;6.57;;;16.00;99.90;;;;;;5093878;28;20650;-69
2022/09/01 01:41:18;;;;;;;8.20;6.40;;;16.10;99.90;;;;;;5094315;28;20573;-69
2022/09/01 01:43:47;;;;;;;8.27;6.87;;;16.00;99.90;;;;;;5093354;28;20976;-69
2022/09/01 01:46:14;;;;;;;7.40;6.80;;;16.00;99.90;;;;;;5093124;28;20665;-69
2022/09/01 01:48:42;;;;;;;7.33;6.57;;;15.90;99.90;;;;;;5093732;28;21008;-69
2022/09/01 01:51:10;;;;;;;7.53;6.70;;;15.90;99.90;;;;;;5093999;28;20997;-69
2022/09/01 01:53:37;;;;;;;7.70;6.97;;;16.00;99.90;;;;;;5093128;28;20617;-69
2022/09/01 01:56:05;;;;;;;6.70;6.20;;;16.00;99.90;;;;;;5094062;28;20573;-69
2022/09/01 01:58:33;;;;;;;7.90;6.80;;;15.90;99.90;;;;;;5093825;28;20581;-69
2022/09/01 02:01:02;;;;;;;12.60;7.03;;;15.90;99.90;;;;;;5093522;28;21100;-69
2022/09/01 02:03:37;;;;;;;7.63;7.03;;;15.90;99.90;;;;;;5075335;28;20977;-69
2022/09/01 02:06:07;;;;;;;7.97;7.27;;;15.90;99.90;;;;;;5093440;28;21141;-69
2022/09/01 02:08:35;;;;;;;6.63;6.00;;;15.80;99.90;;;;;;5092818;28;20621;-69
2022/09/01 02:11:04;;;;;;;7.47;6.67;;;15.80;99.90;;;;;;5093674;28;21265;-69
2022/09/01 02:13:30;;;;;;;7.60;6.70;;;15.80;99.90;;;;;;5093101;28;20621;-69
2022/09/01 02:16:00;;;;;;;7.40;6.73;;;15.80;99.90;;;;;;5098164;28;20560;-69
2022/09/01 02:18:36;;;;;;;7.50;6.90;;;15.80;99.90;;;;;;5097385;28;21184;-69
2022/09/01 02:21:10;;;;;;;6.77;6.20;;;15.80;99.90;;;;;;5097595;28;20597;-69
2022/09/01 02:23:39;;;;;;;8.40;7.00;;;15.80;99.90;;;;;;5097010;28;21095;-69
2022/09/01 02:26:10;;;;;;;7.40;6.80;;;15.70;99.90;;;;;;5096668;28;20663;-69
2022/09/01 02:28:41;;;;;;;8.30;7.50;;;15.70;99.90;;;;;;5079231;28;20653;-69
2022/09/01 02:31:09;;;;;;;7.50;6.73;;;15.60;99.90;;;;;;5097040;28;20625;-69
2022/09/01 02:33:38;;;;;;;6.63;6.07;;;15.60;99.90;;;;;;5097446;28;20605;-69
2022/09/01 02:36:14;;;;;;;8.93;7.70;;;15.60;99.90;;;;;;5097234;28;20609;-69
2022/09/01 02:38:43;;;;;;;7.47;6.83;;;15.60;99.90;;;;;;5097436;28;20577;-69
2022/09/01 02:41:11;;;;;;;7.53;6.80;;;15.50;99.90;;;;;;5097131;28;20628;-69
2022/09/01 02:43:39;;;;;;;7.57;7.00;;;15.60;99.90;;;;;;5096999;28;20633;-69
2022/09/01 02:46:06;;;;;;;7.87;7.27;;;15.60;99.90;;;;;;5097111;28;21104;-69
2022/09/01 02:48:36;;;;;;;7.83;7.23;;;15.60;99.90;;;;;;5096418;28;21271;-69
2022/09/01 02:51:09;;;;;;;10.70;6.47;;;15.50;99.90;;;;;;5096376;28;20621;-69
2022/09/01 02:53:38;;;;;;;7.20;6.70;;;15.50;99.90;;;;;;5096501;28;20581;-69
2022/09/01 02:56:13;;;;;;;8.40;7.13;;;15.40;99.90;;;;;;5096649;28;20576;-69
2022/09/01 02:58:45;;;;;;;12.83;7.57;;;15.40;99.90;;;;;;5096486;28;20641;-69
2022/09/01 03:01:19;;;;;;;8.30;7.60;;;15.30;99.90;;;;;;5096275;28;20613;-69
2022/09/01 03:03:46;;;;;;;6.77;6.07;;;15.30;99.90;;;;;;5096209;28;20589;-69
2022/09/01 03:06:13;;;;;;;7.27;6.67;;;15.30;99.90;;;;;;5095103;28;21097;-69
2022/09/01 03:08:40;;;;;;;9.43;8.13;;;15.20;99.90;;;;;;5095968;28;20624;-69
2022/09/01 03:11:09;;;;;;;7.43;6.90;;;15.20;99.90;;;;;;5096345;28;20599;-69
2022/09/01 03:13:38;;;;;;;7.30;6.70;;;15.10;99.90;;;;;;5095934;28;20587;-69
2022/09/01 03:16:06;;;;;;;7.63;7.03;;;15.10;99.90;;;;;;5095470;28;20621;-69
2022/09/01 03:18:33;;;;;;;7.50;6.80;;;15.20;99.90;;;;;;5096051;28;21165;-69
2022/09/01 03:21:01;;;;;;;8.50;7.67;;;15.10;99.90;;;;;;5096154;28;20584;-69
2022/09/01 03:23:30;;;;;;;6.73;6.23;;;15.10;99.90;;;;;;5095489;28;20560;-69
2022/09/01 03:25:57;;;;;;;7.40;6.80;;;15.10;99.90;;;;;;5094208;28;20624;-69
2022/09/01 03:28:24;;;;;;;8.97;6.77;;;15.10;99.90;;;;;;5077100;28;20683;-69
2022/09/01 03:30:53;;;;;;;7.87;7.17;;;15.10;99.90;;;;;;5095773;28;20561;-69
2022/09/01 03:33:21;;;;;;;7.40;6.80;;;15.10;99.90;;;;;;5095470;28;20598;-69
2022/09/01 03:35:47;;;;;;;8.13;7.43;;;15.10;99.90;;;;;;5095750;28;20588;-69
2022/09/01 03:38:22;;;;;;;12.57;7.70;;;15.00;99.90;;;;;;5095150;28;20555;-70
2022/09/01 03:40:51;;;;;;;8.07;7.27;;;15.00;99.90;;;;;;5094759;28;20628;-69
2022/09/01 03:43:22;;;;;;;13.57;6.83;;;15.00;99.90;;;;;;5094854;28;20625;-69
2022/09/01 03:45:49;;;;;;;8.10;7.20;;;15.00;99.90;;;;;;5096032;28;20610;-69
2022/09/01 03:48:15;;;;;;;6.80;6.20;;;15.00;99.90;;;;;;5094991;28;20669;-69
2022/09/01 03:50:44;;;;;;;7.50;6.70;;;15.00;99.90;;;;;;5076953;28;21139;-69
2022/09/01 03:53:18;;;;;;;8.00;7.40;;;15.00;99.90;;;;;;5094940;28;20650;-69
2022/09/01 03:55:47;;;;;;;8.20;7.30;;;14.90;99.90;;;;;;5076446;28;20598;-69
2022/09/01 03:58:17;;;;;;;7.40;6.80;;;14.90;99.90;;;;;;5076629;28;21014;-69
2022/09/01 04:00:47;;;;;;;11.70;6.90;;;14.90;99.90;;;;;;5095065;28;20939;-69
2022/09/01 04:03:21;;;;;;;8.00;7.40;;;14.90;99.90;;;;;;5094481;28;20632;-70
2022/09/01 04:05:50;;;;;;;10.43;7.40;;;14.90;99.90;;;;;;5094399;28;20643;-70
2022/09/01 04:08:18;;;;;;;7.50;6.90;;;14.90;99.90;;;;;;5094836;28;20713;-70
2022/09/01 04:10:50;;;;;;;8.40;7.60;;;14.90;99.90;;;;;;5095001;28;20741;-70
2022/09/01 04:13:20;;;;;;;11.60;7.60;;;15.00;99.90;;;;;;5095107;28;20574;-70
2022/09/01 04:15:46;;;;;;;9.70;7.50;;;15.00;99.90;;;;;;5094882;28;20580;-70
2022/09/01 04:18:20;;;;;;;7.00;6.50;;;14.90;99.90;;;;;;5094719;28;20586;-70
2022/09/01 04:20:49;;;;;;;7.83;7.27;;;14.90;99.90;;;;;;5094871;28;20577;-70
2022/09/01 04:23:28;;;;;;;8.00;7.30;;;14.90;99.90;;;;;;5093772;28;20724;-70
2022/09/01 04:25:56;;;;;;;7.57;7.07;;;14.90;99.90;;;;;;5094011;28;20650;-70
2022/09/01 04:28:29;;;;;;;8.57;7.77;;;14.80;99.90;;;;;;5094316;28;20661;-69
2022/09/01 04:30:57;;;;;;;9.53;7.17;;;14.80;99.90;;;;;;5094486;28;20908;-69
2022/09/01 04:33:33;;;;;;;8.10;7.40;;;14.80;99.90;;;;;;5094251;28;20618;-69
2022/09/01 04:36:01;;;;;;;7.27;6.77;;;14.90;99.90;;;;;;5093641;28;20986;-71
2022/09/01 04:38:28;;;;;;;7.90;7.23;;;14.80;99.90;;;;;;5075654;28;20628;-68
2022/09/01 04:40:56;;;;;;;8.10;7.43;;;14.80;99.90;;;;;;5094476;28;20934;-69
2022/09/01 04:43:23;;;;;;;9.30;7.50;;;14.80;99.90;;;;;;5094372;28;20609;-69
2022/09/01 04:45:50;;;;;;;8.33;6.77;;;14.80;99.90;;;;;;5095052;28;20556;-69
2022/09/01 04:48:20;;;;;;;7.57;6.97;;;14.80;99.90;;;;;;5093971;28;20684;-69
2022/09/01 04:50:48;;;;;;;7.70;7.10;;;14.70;99.90;;;;;;5076296;28;20617;-69
2022/09/01 04:53:17;;;;;;;7.43;6.73;;;14.80;99.90;;;;;;5094089;28;20697;-69
2022/09/01 04:55:45;;;;;;;7.40;6.70;;;14.80;99.90;;;;;;5094167;28;20620;-69
2022/09/01 04:58:16;;;;;;;7.90;7.20;;;14.80;99.90;;;;;;5076415;28;21023;-69
2022/09/01 05:00:46;;;;;;;9.97;6.80;;;14.80;99.90;;;;;;5094250;28;20631;-69
2022/09/01 05:03:14;;;;;;;8.23;7.53;;;14.80;99.90;;;;;;5075565;28;20629;-69
2022/09/01 05:05:43;;;;;;;7.07;6.50;;;14.80;99.90;;;;;;5094015;28;20559;-69
2022/09/01 05:08:13;;;;;;;7.83;7.10;;;14.80;99.90;;;;;;5093683;28;20661;-69
2022/09/01 05:10:46;;;;;;;7.20;6.70;;;14.80;99.90;;;;;;5093816;28;20566;-69
2022/09/01 05:13:16;;;;;;;7.70;7.10;;;14.70;99.90;;;;;;5093885;28;20606;-69
2022/09/01 05:15:46;;;;;;;7.50;6.80;;;14.80;99.90;;;;;;5075806;28;20949;-69
2022/09/01 05:18:22;;;;;;;7.47;6.80;;;14.70;99.90;;;;;;5094408;28;20574;-70
2022/09/01 05:20:51;;;;;;;7.87;6.63;;;14.80;99.90;;;;;;5093386;28;20651;-69
2022/09/01 05:23:19;;;;;;;7.10;6.40;;;14.80;99.90;;;;;;5093854;28;20603;-69
2022/09/01 05:25:53;;;;;;;6.80;6.20;;;14.70;99.90;;;;;;5094162;28;21230;-69
2022/09/01 05:28:24;;;;;;;9.37;6.87;;;14.80;99.90;;;;;;5094322;28;20629;-69
2022/09/01 05:30:53;;;;;;;6.50;5.90;;;14.80;99.90;;;;;;5093649;28;20613;-68
2022/09/01 05:33:20;;;;;;;7.47;6.87;;;14.90;99.90;;;;;;5093972;28;20625;-68
2022/09/01 05:35:55;;;;;;;6.97;6.40;;;14.90;99.90;;;;;;5093501;28;20632;-68
2022/09/01 05:38:24;;;;;;;8.03;7.43;;;14.90;99.90;;;;;;5093950;28;20634;-69
2022/09/01 05:41:02;;;;;;;7.53;6.87;;;14.90;99.90;;;;;;5093344;28;20617;-69
2022/09/01 05:43:31;;;;;;;8.30;7.70;;;15.10;99.90;;;;;;5093758;28;20573;-69
2022/09/01 05:45:57;;;;;;;7.73;6.93;;;15.10;99.90;;;;;;5093303;28;20585;-69
2022/09/01 05:48:24;;;;;;;11.93;7.10;;;15.20;99.90;;;;;;5093339;28;20638;-72
2022/09/01 05:50:56;;;;;;;9.37;7.33;;;15.30;99.90;;;;;;5097763;28;20581;-72
2022/09/01 05:53:24;;;;;;;11.17;7.33;;;15.50;99.90;;;;;;5096232;28;20651;-75
2022/09/01 05:55:56;;;;;;;9.07;7.53;;;15.50;99.90;;;;;;5079256;28;20614;-74
2022/09/01 05:58:26;;;;;;;8.17;7.47;;;15.70;99.90;;;;;;5097227;28;20621;-73
2022/09/01 06:00:57;;;;;;;7.23;6.63;;;15.70;99.90;;;;;;5097805;28;20581;-74
2022/09/01 06:03:26;;;;;;;8.27;7.53;;;15.70;99.90;;;;;;5079276;28;20976;-74
2022/09/01 06:05:54;;;;;;;9.47;7.70;;;15.70;99.90;;;;;;5078647;28;20985;-74
2022/09/01 06:08:24;;;;;;;8.77;7.90;;;15.80;99.90;;;;;;5097205;28;20661;-74
2022/09/01 06:10:51;;;;;;;10.90;8.80;;;15.90;99.90;;;;;;5097175;28;20617;-74
2022/09/01 06:13:20;;;;;;;9.87;8.00;;;15.90;99.90;;;;;;5096937;28;20599;-75
2022/09/01 06:15:52;;;;;;;12.63;9.10;;;16.00;99.90;;;;;;5097232;28;20609;-74
2022/09/01 06:18:20;;;;;;;9.07;7.27;;;16.10;99.90;;;;;;5096990;28;20632;-74
2022/09/01 06:20:48;;;;;;;13.70;8.57;;;16.10;99.90;;;;;;5097164;28;20554;-72
2022/09/01 06:23:16;;;;;;;10.13;9.20;;;16.10;99.90;;;;;;5097344;28;20570;-73
2022/09/01 06:25:45;;;;;;;15.93;9.10;;;16.20;99.90;;;;;;5097257;28;20641;-72
2022/09/01 06:28:13;;;;;;;14.07;8.83;;;16.30;99.90;;;;;;5096165;28;20668;-72
2022/09/01 06:30:41;;;;;;;12.70;9.40;;;16.50;99.90;;;;;;5097250;28;20637;-71
2022/09/01 06:33:09;;;;;;;9.07;8.30;;;16.60;99.90;;;;;;5096840;28;21175;-72
2022/09/01 06:35:37;;;;;;;14.87;10.00;;;16.60;99.90;;;;;;5097048;28;20566;-72
2022/09/01 06:38:05;;;;;;;9.03;8.23;;;16.60;99.90;;;;;;5096654;28;20601;-72
2022/09/01 06:40:34;;;;;;;16.30;9.23;;;16.80;99.90;;;;;;5078293;28;20617;-72
2022/09/01 06:43:06;;;;;;;13.47;9.10;;;16.90;99.90;;;;;;5095892;28;20624;-73
2022/09/01 06:45:39;;;;;;;9.00;8.10;;;16.90;99.90;;;;;;5096153;28;20684;-73
2022/09/01 06:48:06;;;;;;;10.23;8.53;;;16.90;99.90;;;;;;5095994;28;21223;-73
2022/09/01 06:50:33;;;;;;;11.33;9.17;;;17.00;99.90;;;;;;5096694;28;20569;-74
2022/09/01 06:53:17;;;;;;;11.60;9.10;;;17.20;99.90;;;;;;5096944;28;20655;-73
2022/09/01 06:55:47;;;;;;;10.50;9.40;;;17.30;99.90;;;;;;5096499;28;20655;-73
2022/09/01 06:58:14;;;;;;;11.37;10.53;;;17.40;99.90;;;;;;5078182;28;20624;-72
2022/09/01 07:00:42;;;;;;;11.53;9.90;;;17.50;99.90;;;;;;5096694;28;20900;-72
2022/09/01 07:03:10;;;;;;;12.43;10.53;;;17.50;99.90;;;;;;5078798;28;20585;-72
2022/09/01 07:05:39;;;;;;;10.10;9.20;;;17.50;99.90;;;;;;5096990;28;20551;-72
2022/09/01 07:08:09;;;;;;;11.47;10.47;;;17.60;99.90;;;;;;5096622;28;20661;-72
2022/09/01 07:10:44;;;;;;;13.77;10.83;;;17.70;99.90;;;;;;5078274;28;20614;-72
2022/09/01 07:13:22;;;;;;;13.50;12.20;;;17.70;99.90;;;;;;5096712;28;20569;-71
2022/09/01 07:15:51;;;;;;;14.50;10.43;;;17.70;99.90;;;;;;5096314;28;20613;-71
2022/09/01 07:18:21;;;;;;;11.60;10.50;;;17.80;99.90;;;;;;5095628;28;20990;-72
2022/09/01 07:20:47;;;;;;;10.80;9.80;;;17.90;99.90;;;;;;5078311;28;20628;-73
2022/09/01 07:23:19;;;;;;;11.87;10.77;;;18.10;99.90;;;;;;5078568;28;20621;-71
2022/09/01 07:25:47;;;;;;;12.63;11.43;;;18.20;99.90;;;;;;5095847;28;20697;-69
2022/09/01 07:28:16;;;;;;;12.50;11.50;;;18.40;99.90;;;;;;5096165;28;20625;-71
2022/09/01 07:30:47;;;;;;;12.90;11.60;;;18.40;99.90;;;;;;5095268;28;20625;-73
2022/09/01 07:33:19;;;;;;;13.40;11.00;;;18.40;99.90;;;;;;5095769;28;20628;-70
2022/09/01 07:35:46;;;;;;;14.10;11.30;;;18.50;99.90;;;;;;5077346;28;20613;-73
2022/09/01 07:38:13;;;;;;;11.83;10.83;;;18.70;99.90;;;;;;5095578;28;20632;-74
2022/09/01 07:40:40;;;;;;;11.93;10.83;;;18.70;99.90;;;;;;5095815;28;20610;-75
2022/09/01 07:43:14;;;;;;;11.87;10.03;;;18.70;99.90;;;;;;5095792;28;20582;-73
2022/09/01 07:45:46;;;;;;;11.87;10.77;;;18.70;99.90;;;;;;5095502;28;20994;-74
2022/09/01 07:48:13;;;;;;;12.83;11.53;;;18.80;99.90;;;;;;5094944;28;20737;-76
2022/09/01 07:50:46;;;;;;;11.90;10.73;;;19.00;99.90;;;;;;5095890;28;21123;-76
2022/09/01 07:53:17;;;;;;;20.27;12.90;;;19.30;99.90;;;;;;5077291;28;20613;-74
2022/09/01 07:55:45;;;;;;;11.50;10.13;;;19.30;99.90;;;;;;5095265;28;20601;-75
2022/09/01 07:58:13;;;;;;;11.03;9.90;;;19.30;99.90;;;;;;5077560;28;20584;-75
2022/09/01 08:00:42;;;;;;;13.60;12.20;;;19.40;99.90;;;;;;5095847;28;20585;-75
2022/09/01 08:03:08;;;;;;;13.40;12.00;;;19.40;99.90;;;;;;5095311;28;20616;-74
2022/09/01 08:05:35;;;;;;;12.00;10.70;;;19.20;99.90;;;;;;5076908;28;21179;-76
2022/09/01 08:08:02;;;;;;;10.93;9.97;;;19.30;99.90;;;;;;5095113;28;20983;-74
2022/09/01 08:10:28;;;;;;;12.33;10.03;;;19.60;99.90;;;;;;5095191;28;20566;-75
2022/09/01 08:12:55;;;;;;;20.50;13.47;;;19.80;99.90;;;;;;5094829;28;20629;-74
2022/09/01 08:15:22;;;;;;;13.60;12.30;;;19.60;99.90;;;;;;5094894;28;21172;-75
2022/09/01 08:17:49;;;;;;;8.97;8.17;;;19.60;99.90;;;;;;5095595;28;20597;-75
2022/09/01 08:20:15;;;;;;;12.20;11.10;;;19.70;99.90;;;;;;5095465;28;20944;-76
2022/09/01 08:22:42;;;;;;;12.57;11.27;;;19.80;99.90;;;;;;5095501;28;20576;-75
2022/09/01 08:25:09;;;;;;;13.30;12.00;;;20.10;99.90;;;;;;5095111;28;20634;-75
2022/09/01 08:27:40;;;;;;;10.00;9.20;;;20.10;99.90;;;;;;5095423;28;20629;-75
2022/09/01 08:30:11;;;;;;;11.23;10.23;;;20.20;99.90;;;;;;5095019;28;20581;-75
2022/09/01 08:32:40;;;;;;;11.97;10.93;;;20.20;99.90;;;;;;5094579;28;20620;-76
2022/09/01 08:35:10;;;;;;;11.17;10.10;;;20.30;99.90;;;;;;5094791;28;20947;-78
2022/09/01 08:37:37;;;;;;;13.80;10.93;;;20.20;99.90;;;;;;5098860;28;20581;-77
2022/09/01 08:40:05;;;;;;;10.30;9.30;;;20.30;99.90;;;;;;5095773;28;20679;-76
2022/09/01 08:43:02;;;;;;;10.33;9.13;;;20.70;99.90;;;;;;5095095;28;20570;-75
2022/09/01 08:45:53;;;;;;;11.47;9.83;;;20.50;99.90;;;;;;5076419;28;20617;-76
2022/09/01 08:48:47;;;;;;;10.70;9.40;;;20.80;99.90;;;;;;5093998;28;20661;-74
2022/09/01 08:51:22;;;;;;;9.83;8.53;;;21.10;99.90;;;;;;5076087;28;20616;-75
2022/09/01 08:54:00;;;;;;;10.07;9.07;;;21.40;99.90;;;;;;5094547;28;20576;-76
2022/09/01 08:56:27;;;;;;;10.57;9.70;;;21.10;99.90;;;;;;5094920;28;20561;-76
2022/09/01 08:58:53;;;;;;;9.10;8.40;;;20.90;99.90;;;;;;5095279;28;20570;-73
2022/09/01 09:01:43;;;;;;;9.53;8.73;;;20.70;99.90;;;;;;5059251;28;21214;-75
2022/09/01 09:04:27;;;;;;;8.87;7.83;;;21.00;99.90;;;;;;5076875;28;21238;-74
2022/09/01 09:07:17;;;;;;;8.40;7.60;;;21.30;99.90;;;;;;5094612;28;20573;-74
2022/09/01 09:10:13;;;;;;;8.93;8.13;;;21.50;99.90;;;;;;5094676;28;20573;-74
2022/09/01 09:12:55;;;;;;;10.70;9.70;;;21.30;99.90;;;;;;5094302;28;20747;-73
2022/09/01 09:15:33;;;;;;;9.03;8.07;;;21.10;99.90;;;;;;5075776;28;20613;-74
2022/09/01 09:18:26;;;;;;;8.40;7.67;;;21.10;99.90;;;;;;5094335;28;20625;-75
2022/09/01 09:20:54;;;;;;;6.83;6.33;;;21.60;99.90;;;;;;5094052;28;20629;-74
2022/09/01 09:23:35;;;;;;;7.73;7.03;;;22.00;99.90;;;;;;5093165;28;20984;-74
2022/09/01 09:26:01;;;;;;;6.10;5.70;;;21.90;99.90;;;;;;5094250;28;20584;-75
2022/09/01 09:28:27;;;;;;;7.23;6.63;;;22.00;99.90;;;;;;5094657;28;20640;-75
2022/09/01 09:31:30;;;;;;;7.60;7.00;;;21.90;99.90;;;;;;5076187;28;20617;-76
2022/09/01 09:33:57;;;;;;;6.13;5.73;;;22.20;99.90;;;;;;5093137;28;20972;-74
2022/09/01 09:36:35;;;;;;;6.27;5.73;;;22.40;99.90;;;;;;5094002;28;21084;-75
2022/09/01 09:39:15;;;;;;;8.13;6.10;;;22.20;99.90;;;;;;5094362;28;20593;-74
2022/09/01 09:41:43;;;;;;;6.87;6.37;;;22.30;99.90;;;;;;5094259;28;21155;-75
2022/09/01 09:44:20;;;;;;;6.83;6.30;;;22.20;99.90;;;;;;5094496;28;20561;-75
2022/09/01 09:46:47;;;;;;;6.20;5.30;;;22.20;99.90;;;;;;5094245;28;20620;-73
2022/09/01 09:49:19;;;;;;;7.87;7.27;;;22.10;99.90;;;;;;5076150;28;20665;-75
2022/09/01 09:52:11;;;;;;;7.13;6.53;;;22.10;99.90;;;;;;5094009;28;20569;-73
2022/09/01 09:54:59;;;;;;;7.30;6.13;;;22.10;99.90;;;;;;5075265;28;20632;-73
2022/09/01 09:57:29;;;;;;;6.53;5.97;;;22.10;99.90;;;;;;5093534;28;21037;-73
2022/09/01 10:00:01;;;;;;;6.60;5.97;;;21.90;99.90;;;;;;5094216;28;20574;-73
2022/09/01 10:02:35;;;;;;;7.73;6.57;;;21.80;99.90;;;;;;5093722;28;20589;-73
2022/09/01 10:05:22;;;;;;;6.17;5.77;;;22.00;99.90;;;;;;5093199;28;20614;-73
2022/09/01 10:07:49;;;;;;;6.37;5.87;;;21.90;99.90;;;;;;5093391;28;20656;-73
2022/09/01 10:10:37;;;;;;;11.30;7.63;;;22.10;99.90;;;;;;5093166;28;20937;-73
2022/09/01 10:13:07;;;;;;;8.87;6.33;;;22.20;99.90;;;;;;5092846;28;20620;-73
2022/09/01 10:15:34;;;;;;;6.77;5.97;;;22.20;99.90;;;;;;5093837;28;20574;-73
2022/09/01 10:18:15;;;;;;;5.80;5.33;;;22.60;99.90;;;;;;5093828;28;20569;-73
2022/09/01 10:20:52;;;;;;;8.10;7.40;;;22.50;99.90;;;;;;5093346;28;21116;-73
2022/09/01 10:23:18;;;;;;;7.30;6.60;;;22.50;99.90;;;;;;5093438;28;20638;-73
2022/09/01 10:25:49;;;;;;;7.37;6.60;;;22.60;99.90;;;;;;5093578;28;20682;-73
2022/09/01 10:28:22;;;;;;;7.40;5.80;;;22.70;99.90;;;;;;5092763;28;20714;-73
2022/09/01 10:30:52;;;;;;;5.93;5.53;;;22.30;99.90;;;;;;5074912;28;20621;-73
2022/09/01 10:33:20;;;;;;;6.10;5.60;;;22.30;99.90;;;;;;5093930;28;20598;-73
2022/09/01 10:35:51;;;;;;;7.17;6.57;;;22.50;99.90;;;;;;5095427;28;20701;-73
2022/09/01 10:38:22;;;;;;;5.57;5.17;;;22.40;99.90;;;;;;5097070;28;20577;-73
2022/09/01 10:41:06;;;;;;;5.90;5.37;;;22.50;99.90;;;;;;5096115;28;20939;-73
2022/09/01 10:43:40;;;;;;;6.40;6.00;;;22.70;99.90;;;;;;5096240;28;20953;-73
2022/09/01 10:46:17;;;;;;;5.60;5.20;;;23.30;99.90;;;;;;5096100;28;21025;-73
2022/09/01 10:48:45;;;;;;;5.60;5.27;;;23.20;99.90;;;;;;5096069;28;20669;-73
2022/09/01 10:51:14;;;;;;;7.80;7.03;;;24.00;99.90;;;;;;5078986;28;20573;-73
2022/09/01 10:53:52;;;;;;;8.60;7.50;;;24.00;99.90;;;;;;5078217;28;20620;-73
2022/09/01 10:56:45;;;;;;;6.50;6.00;;;23.80;99.90;;;;;;5096653;28;21108;-73
2022/09/01 10:59:21;;;;;;;6.17;5.67;;;23.10;99.90;;;;;;5087203;28;20656;-75
2022/09/01 11:01:47;;;;;;;6.30;5.90;;;22.90;99.90;;;;;;5097384;28;20994;-76
2022/09/01 11:04:43;;;;;;;6.43;5.93;;;22.90;99.90;;;;;;5097433;28;20965;-76
2022/09/01 11:07:22;;;;;;;6.40;5.97;;;23.00;99.90;;;;;;5096912;28;21261;-76
2022/09/01 11:10:22;;;;;;;6.30;5.90;;;23.30;99.90;;;;;;5097700;28;20625;-76
2022/09/01 11:13:08;;;;;;;5.90;5.30;;;24.00;99.90;;;;;;5097742;28;20576;-76
2022/09/01 11:15:36;;;;;;;6.10;5.57;;;24.70;99.90;;;;;;5097462;28;20666;-76
2022/09/01 11:18:14;;;;;;;6.50;6.00;;;24.60;99.90;;;;;;5097870;28;20617;-76
2022/09/01 11:20:43;;;;;;;7.10;6.03;;;23.90;99.90;;;;;;5096750;28;20624;-76
2022/09/01 11:23:24;;;;;;;6.80;6.27;;;24.10;99.90;;;;;;5097498;28;20589;-76
2022/09/01 11:25:58;;;;;;;5.97;5.53;;;25.00;99.90;;;;;;5096919;28;20640;-76
2022/09/01 11:28:30;;;;;;;5.87;5.47;;;25.20;99.90;;;;;;5096871;28;20633;-77
2022/09/01 11:31:07;;;;;;;5.30;5.00;;;25.50;99.90;;;;;;5097445;28;20688;-77
2022/09/01 11:33:40;;;;;;;6.53;6.03;;;25.10;99.90;;;;;;5097522;28;20624;-76
2022/09/01 11:36:18;;;;;;;9.23;5.90;;;24.30;99.90;;;;;;5096248;28;20610;-75
2022/09/01 11:38:50;;;;;;;6.83;6.23;;;24.00;99.90;;;;;;5096141;28;20620;-76
2022/09/01 11:41:22;;;;;;;6.20;5.80;;;23.90;99.90;;;;;;5096276;28;20674;-76
2022/09/01 11:43:53;;;;;;;6.07;5.67;;;23.70;99.90;;;;;;5097124;28;20589;-77
2022/09/01 11:46:41;;;;;;;6.03;5.50;;;24.30;99.90;;;;;;5096405;28;20569;-76
2022/09/01 11:49:28;;;;;;;6.10;5.70;;;25.00;99.90;;;;;;5096221;28;20671;-76
2022/09/01 11:52:00;;;;;;;5.70;5.30;;;26.00;99.90;;;;;;5095894;28;20613;-75
2022/09/01 11:54:36;;;;;;;8.63;5.60;;;24.80;99.90;;;;;;5078474;28;20616;-76
2022/09/01 11:57:26;;;;;;;6.30;5.90;;;25.60;99.90;;;;;;5096441;28;20616;-75
2022/09/01 11:59:54;;;;;;;5.40;5.10;;;26.00;99.90;;;;;;5096263;28;20976;-76
2022/09/01 12:02:28;;;;;;;5.20;4.90;;;27.10;99.90;;;;;;5096364;28;20625;-76
2022/09/01 12:04:55;;;;;;;6.03;5.50;;;27.70;99.90;;;;;;5077783;28;20625;-77
2022/09/01 12:07:38;;;;;;;5.20;4.90;;;27.40;99.90;;;;;;5095653;28;20620;-75
2022/09/01 12:10:33;;;;;;;5.90;5.50;;;27.40;99.90;;;;;;5095707;28;20657;-75
2022/09/01 12:13:07;;;;;;;6.23;5.77;;;28.10;99.90;;;;;;5096188;28;21073;-76
2022/09/01 12:15:39;;;;;;;5.30;5.00;;;28.10;99.90;;;;;;5095564;28;20616;-76
2022/09/01 12:18:20;;;;;;;6.07;5.63;;;28.60;99.90;;;;;;5095222;28;20617;-76
2022/09/01 12:20:49;;;;;;;5.80;5.50;;;28.30;99.90;;;;;;5076811;28;20621;-76
2022/09/01 12:23:31;;;;;;;5.43;5.13;;;29.20;99.90;;;;;;5094755;28;21104;-76
2022/09/01 12:26:07;;;;;;;5.53;5.10;;;28.60;99.90;;;;;;5094948;28;20650;-77
2022/09/01 12:28:34;;;;;;;5.77;5.37;;;28.40;99.90;;;;;;5095054;28;20624;-76
2022/09/01 12:31:03;;;;;;;6.10;5.70;;;26.90;99.90;;;;;;5094539;28;21250;-76
2022/09/01 12:33:32;;;;;;;6.70;5.83;;;26.20;99.90;;;;;;5094795;28;20621;-76
2022/09/01 12:36:29;;;;;;;5.77;5.47;;;26.40;99.90;;;;;;5095698;28;20573;-76
2022/09/01 12:39:16;;;;;;;5.83;5.43;;;27.30;99.90;;;;;;5078076;28;20637;-76
2022/09/01 12:41:45;;;;;;;6.10;5.70;;;28.00;99.90;;;;;;5095120;28;20584;-76
2022/09/01 12:44:33;;;;;;;6.23;5.70;;;27.50;99.90;;;;;;5077050;28;20581;-76
2022/09/01 12:47:13;;;;;;;6.13;5.63;;;28.50;99.90;;;;;;5094777;28;20636;-76
2022/09/01 12:49:46;;;;;;;5.83;5.43;;;28.70;99.90;;;;;;5076449;28;20677;-75
2022/09/01 12:52:18;;;;;;;6.20;5.80;;;28.30;99.90;;;;;;5076467;28;20622;-75
2022/09/01 12:54:47;;;;;;;7.40;5.20;;;29.00;99.90;;;;;;5094913;28;20620;-75
2022/09/01 12:57:29;;;;;;;5.63;5.33;;;29.00;99.90;;;;;;5095843;28;20573;-75
2022/09/01 13:00:08;;;;;;;5.30;5.07;;;27.70;99.90;;;;;;5096602;28;20578;-75
2022/09/01 13:02:42;;;;;;;5.73;5.23;;;27.80;99.90;;;;;;5096231;28;20573;-76
2022/09/01 13:05:35;;;;;;;6.23;5.73;;;26.80;99.90;;;;;;5095350;28;20626;-75
2022/09/01 13:08:07;;;;;;;6.07;5.70;;;26.10;99.90;;;;;;5094299;28;20613;-76
2022/09/01 13:10:40;;;;;;;6.23;5.83;;;25.80;99.90;;;;;;5076158;28;20621;-75